Time;durP1;ratioP1;P1;durP2;ratioP2;P2;SDS_P1;SDS_P2;PMS_P1;PMS_P2;Temp;Humidity;BMP_temperature;BMP_pressure;BME280_temperature;BME280_humidity;BME280_pressure;Samples;Min_cycle;Max_cycle;Signal;HPM_P1;HPM_P2
2023/10/13 03:02:14;;;;;;;4.32;3.22;;;21.50;53.60;;;;;;5114523;23;46127;-82
2023/10/13 03:04:41;;;;;;;5.55;3.20;;;21.50;53.70;;;;;;4883797;28;45754;-81
2023/10/13 03:07:06;;;;;;;3.78;3.13;;;21.50;53.70;;;;;;4883104;28;44918;-81
2023/10/13 03:09:37;;;;;;;4.23;3.10;;;21.50;53.70;;;;;;4884697;28;46162;-82
2023/10/13 03:12:04;;;;;;;4.72;3.33;;;21.50;53.70;;;;;;4864020;28;45132;-83
2023/10/13 03:14:33;;;;;;;4.75;3.25;;;21.50;53.70;;;;;;4877874;28;45361;-81
2023/10/13 03:17:08;;;;;;;5.15;3.40;;;21.50;53.70;;;;;;4884746;28;46073;-81
2023/10/13 03:19:35;;;;;;;4.05;3.10;;;21.50;53.70;;;;;;4897481;28;45650;-81
2023/10/13 03:22:11;;;;;;;3.85;3.22;;;21.50;53.70;;;;;;4854418;28;45349;-81
2023/10/13 03:24:45;;;;;;;5.07;3.22;;;21.50;53.70;;;;;;4867475;28;45457;-81
2023/10/13 03:27:15;;;;;;;4.82;3.30;;;21.50;53.70;;;;;;4879498;28;45043;-81
2023/10/13 03:29:44;;;;;;;4.43;3.25;;;21.50;53.60;;;;;;4917830;28;45124;-81
2023/10/13 03:32:35;;;;;;;5.13;3.08;;;21.50;53.70;;;;;;4870249;28;45187;-81
2023/10/13 03:37:38;;;;;;;5.13;3.40;;;21.50;53.70;;;;;;4881661;28;45168;-81
2023/10/13 03:40:33;;;;;;;4.45;3.08;;;21.50;53.70;;;;;;4886584;28;46458;-82
2023/10/13 03:43:04;;;;;;;4.05;2.90;;;21.50;53.70;;;;;;4877931;28;45492;-81
2023/10/13 03:45:42;;;;;;;5.28;3.28;;;21.50;53.70;;;;;;4872817;28;45607;-82
2023/10/13 03:51:08;;;;;;;4.05;3.08;;;21.50;53.70;;;;;;4885108;28;45406;-81
2023/10/13 03:53:35;;;;;;;4.20;3.20;;;21.50;53.70;;;;;;4898031;28;46394;-82
2023/10/13 03:56:26;;;;;;;3.90;3.25;;;21.50;53.70;;;;;;4877305;28;45578;-81
2023/10/13 03:58:53;;;;;;;4.22;2.92;;;21.50;53.70;;;;;;4876247;28;45433;-81
2023/10/13 04:01:30;;;;;;;4.57;3.40;;;21.50;53.70;;;;;;4856358;28;45437;-82
2023/10/13 04:03:57;;;;;;;4.28;3.08;;;21.40;53.70;;;;;;4868936;28;45424;-81
2023/10/13 04:06:51;;;;;;;4.43;2.88;;;21.50;53.70;;;;;;4883135;28;45188;-82
2023/10/13 04:17:14;;;;;;;4.13;3.30;;;21.50;53.70;;;;;;4873140;28;45359;-83
2023/10/13 04:20:12;;;;;;;4.03;3.35;;;21.50;53.80;;;;;;4896436;28;45225;-81
2023/10/13 04:23:17;;;;;;;4.88;2.80;;;21.40;53.80;;;;;;4874682;28;46560;-82
2023/10/13 04:36:13;;;;;;;4.80;3.25;;;21.50;53.80;;;;;;4903947;28;45564;-82
2023/10/13 04:39:16;;;;;;;3.88;3.10;;;21.40;53.70;;;;;;4864560;28;45222;-81
2023/10/13 04:41:57;;;;;;;4.00;3.30;;;21.40;53.70;;;;;;4871336;28;45280;-81
2023/10/13 04:47:07;;;;;;;5.65;3.00;;;21.50;53.80;;;;;;4853033;28;45611;-81
2023/10/13 04:57:34;;;;;;;5.65;3.55;;;21.40;53.80;;;;;;4889080;28;45123;-82
2023/10/13 05:05:43;;;;;;;4.65;3.20;;;21.50;53.80;;;;;;4873720;28;46490;-81
2023/10/13 06:29:53;;;;;;;4.75;3.50;;;21.40;54.00;;;;;;4909296;28;45271;-80
2023/10/13 06:32:19;;;;;;;4.15;3.40;;;21.40;53.90;;;;;;4867291;28;46288;-81
2023/10/13 06:34:45;;;;;;;4.75;3.33;;;21.40;53.90;;;;;;4859219;28;45493;-81
2023/10/13 06:37:25;;;;;;;4.85;3.20;;;21.50;53.90;;;;;;4874056;28;45745;-81
2023/10/13 06:39:52;;;;;;;4.53;3.20;;;21.40;53.90;;;;;;4878209;28;45322;-81
2023/10/13 06:42:19;;;;;;;4.57;3.40;;;21.40;53.90;;;;;;4871587;28;45738;-82
2023/10/13 06:45:08;;;;;;;5.43;3.53;;;21.50;54.00;;;;;;4908627;28;45321;-81
2023/10/13 06:47:42;;;;;;;4.65;3.17;;;21.40;53.90;;;;;;4872820;28;45949;-81
2023/10/13 06:50:19;;;;;;;4.50;3.47;;;21.40;53.90;;;;;;4878249;28;45750;-82
2023/10/13 06:52:48;;;;;;;4.68;3.30;;;21.40;53.90;;;;;;4879052;28;45474;-81
2023/10/13 06:55:17;;;;;;;5.30;3.70;;;21.40;53.90;;;;;;4876174;28;45370;-82
2023/10/13 06:57:44;;;;;;;4.72;3.33;;;21.40;53.90;;;;;;4866380;28;45382;-81
2023/10/13 07:00:34;;;;;;;4.38;3.40;;;21.40;53.90;;;;;;4849900;28;45932;-82
2023/10/13 07:03:06;;;;;;;4.00;3.28;;;21.40;53.90;;;;;;4859384;28;46459;-81
2023/10/13 07:05:37;;;;;;;6.30;3.47;;;21.40;53.90;;;;;;4887595;28;45424;-81
2023/10/13 07:08:07;;;;;;;4.25;3.20;;;21.40;53.90;;;;;;4878211;28;45262;-81
2023/10/13 07:10:44;;;;;;;4.20;3.28;;;21.40;53.90;;;;;;4859864;28;45539;-81
2023/10/13 07:13:13;;;;;;;4.57;3.38;;;21.40;53.90;;;;;;4895127;28;46120;-81
2023/10/13 07:15:44;;;;;;;3.97;3.40;;;21.40;53.90;;;;;;4870544;28;46524;-82
2023/10/13 07:18:13;;;;;;;4.38;3.10;;;21.40;53.90;;;;;;4877907;28;46242;-81
2023/10/13 07:20:43;;;;;;;4.53;3.20;;;21.40;53.90;;;;;;4870542;28;45307;-81
2023/10/13 07:23:17;;;;;;;4.20;3.47;;;21.40;53.90;;;;;;4865733;28;46863;-81
2023/10/13 07:26:02;;;;;;;3.97;3.30;;;21.50;54.00;;;;;;4860688;28;45215;-82
2023/10/13 07:28:30;;;;;;;4.35;3.30;;;21.40;53.90;;;;;;4880667;28;45754;-82
2023/10/13 07:33:25;;;;;;;3.90;3.27;;;21.40;53.90;;;;;;4891866;28;46108;-80
2023/10/13 07:36:27;;;;;;;3.80;3.20;;;21.50;54.00;;;;;;4872206;28;45357;-81
2023/10/13 07:39:20;;;;;;;3.80;3.38;;;21.40;53.90;;;;;;4895024;28;45285;-81
2023/10/13 07:41:51;;;;;;;5.88;3.40;;;21.40;53.90;;;;;;4879354;28;45178;-81
2023/10/13 07:44:20;;;;;;;4.32;3.40;;;21.40;53.90;;;;;;4881728;28;46738;-81
2023/10/13 07:46:57;;;;;;;5.35;3.40;;;21.40;53.90;;;;;;4866647;28;45479;-81
2023/10/13 07:49:23;;;;;;;4.00;3.20;;;21.40;53.90;;;;;;4881715;28;46228;-81
2023/10/13 07:51:51;;;;;;;4.38;3.40;;;21.40;53.90;;;;;;4871672;28;45838;-82
2023/10/13 07:54:21;;;;;;;6.35;3.33;;;21.40;53.90;;;;;;4877091;28;46497;-81
2023/10/13 07:56:50;;;;;;;4.13;3.20;;;21.40;53.90;;;;;;4874774;28;44643;-81
2023/10/13 07:59:16;;;;;;;4.05;3.30;;;21.40;53.90;;;;;;4849473;28;44925;-82
2023/10/13 08:01:45;;;;;;;4.87;3.30;;;21.50;54.00;;;;;;4864554;28;45750;-82
2023/10/13 08:06:36;;;;;;;4.40;3.50;;;21.40;54.50;;;;;;4901761;28;45612;-82
2023/10/13 08:09:09;;;;;;;5.93;3.50;;;21.40;53.90;;;;;;4859642;28;45531;-81
2023/10/13 08:11:36;;;;;;;5.03;3.47;;;21.40;53.90;;;;;;4858445;28;45382;-81
2023/10/13 08:14:12;;;;;;;3.95;3.03;;;21.40;53.90;;;;;;4872785;28;45656;-80
2023/10/13 08:19:15;;;;;;;3.50;3.20;;;21.40;54.00;;;;;;4874556;28;45367;-81
2023/10/13 08:21:57;;;;;;;4.57;3.40;;;21.40;53.90;;;;;;4883304;28;45706;-82
2023/10/13 08:24:55;;;;;;;3.92;3.30;;;21.40;53.90;;;;;;4870506;28;46321;-81
2023/10/13 08:27:34;;;;;;;4.30;3.28;;;21.40;53.90;;;;;;4884194;28;45657;-81
2023/10/13 08:37:46;;;;;;;5.22;3.28;;;21.50;54.00;;;;;;4873030;28;45394;-81
2023/10/13 08:40:43;;;;;;;5.60;3.50;;;21.40;53.90;;;;;;4854919;28;45524;-81
2023/10/13 08:48:12;;;;;;;3.72;3.17;;;21.40;53.90;;;;;;4877064;28;45225;-81
2023/10/13 08:50:55;;;;;;;4.25;3.15;;;21.40;53.90;;;;;;4856744;29;46098;-82
2023/10/13 08:56:31;;;;;;;4.95;3.33;;;21.50;54.00;;;;;;4886577;28;46090;-81
2023/10/13 08:59:05;;;;;;;4.60;3.30;;;21.50;54.00;;;;;;4874748;28;45311;-80
2023/10/13 09:04:27;;;;;;;4.15;3.03;;;21.50;54.60;;;;;;4888838;28;45420;-81
2023/10/13 09:09:28;;;;;;;3.42;2.90;;;21.50;54.10;;;;;;4874396;28;44646;-81
2023/10/13 09:12:09;;;;;;;3.55;2.95;;;21.50;54.00;;;;;;4884208;28;45502;-80
2023/10/13 09:15:17;;;;;;;3.83;3.00;;;21.50;54.00;;;;;;4889904;28;45189;-81
2023/10/13 09:20:42;;;;;;;3.50;2.88;;;21.50;54.00;;;;;;4885699;28;44750;-81
2023/10/13 09:23:19;;;;;;;3.30;2.90;;;21.50;54.00;;;;;;4844459;28;45809;-80
2023/10/13 09:26:08;;;;;;;4.03;2.88;;;21.50;54.00;;;;;;4880733;28;45024;-81
2023/10/13 09:28:36;;;;;;;6.67;3.40;;;21.50;54.00;;;;;;4877627;28;46634;-82
2023/10/13 09:31:02;;;;;;;3.35;2.92;;;21.50;54.00;;;;;;4863653;28;45871;-82
2023/10/13 09:33:47;;;;;;;4.10;3.00;;;21.50;54.10;;;;;;4855922;28;45354;-80
2023/10/13 09:36:13;;;;;;;4.28;3.10;;;21.50;54.00;;;;;;4871244;28;45309;-81
2023/10/13 09:38:47;;;;;;;3.03;2.60;;;21.50;54.00;;;;;;4890139;28;47178;-81
2023/10/13 09:41:19;;;;;;;3.75;3.00;;;21.50;54.10;;;;;;4868961;28;45147;-81
2023/10/13 09:43:45;;;;;;;3.30;2.63;;;21.50;54.00;;;;;;4889275;28;44925;-81
2023/10/13 09:46:17;;;;;;;3.83;2.75;;;21.50;54.00;;;;;;4834601;28;45658;-81
2023/10/13 09:48:52;;;;;;;4.55;3.15;;;21.50;54.00;;;;;;4889283;28;46171;-81
2023/10/13 09:51:21;;;;;;;4.05;3.08;;;21.50;54.00;;;;;;4881936;28;45914;-82
2023/10/13 09:54:06;;;;;;;3.33;2.72;;;21.50;54.00;;;;;;4874177;28;45481;-82
2023/10/13 09:56:54;;;;;;;3.72;2.88;;;21.50;54.00;;;;;;4856554;28;45523;-81
2023/10/13 09:59:34;;;;;;;3.72;3.08;;;21.50;54.00;;;;;;4869825;28;45249;-81
2023/10/13 10:02:08;;;;;;;3.45;3.10;;;21.50;54.00;;;;;;4880303;28;45340;-80
2023/10/13 10:04:41;;;;;;;3.47;2.95;;;21.50;54.00;;;;;;4860395;28;45451;-81
2023/10/13 10:07:08;;;;;;;4.97;3.13;;;21.50;54.10;;;;;;4856239;28;46096;-82
2023/10/13 10:09:37;;;;;;;3.88;2.75;;;21.50;54.00;;;;;;4877680;28;46330;-81
2023/10/13 10:12:33;;;;;;;3.67;2.80;;;21.50;54.10;;;;;;4871631;28;45201;-81
2023/10/13 10:15:10;;;;;;;4.03;2.67;;;21.50;54.10;;;;;;4905807;28;45086;-82
2023/10/13 10:17:43;;;;;;;3.40;2.80;;;21.50;54.00;;;;;;4838022;28;45610;-81
2023/10/13 10:20:15;;;;;;;3.05;2.67;;;21.50;54.10;;;;;;4886480;28;45942;-82
2023/10/13 10:22:47;;;;;;;3.87;2.80;;;21.50;54.10;;;;;;4859103;28;45496;-82
2023/10/13 10:25:25;;;;;;;3.53;2.67;;;21.50;54.10;;;;;;4856044;28;45505;-81
2023/10/13 10:27:58;;;;;;;3.63;2.72;;;21.60;54.10;;;;;;4863121;28;45529;-81
2023/10/13 10:30:27;;;;;;;3.55;2.83;;;21.60;54.10;;;;;;4839039;28;46359;-81
2023/10/13 10:32:59;;;;;;;3.30;2.83;;;21.50;54.00;;;;;;4869581;29;45628;-81
2023/10/13 10:35:32;;;;;;;3.45;2.65;;;21.60;54.10;;;;;;4855026;28;45403;-82
2023/10/13 10:40:57;;;;;;;3.30;2.80;;;21.60;54.10;;;;;;4900798;28;46391;-81
2023/10/13 10:43:45;;;;;;;3.15;2.65;;;21.60;54.10;;;;;;4861188;28;46225;-81
2023/10/13 10:46:16;;;;;;;3.28;2.75;;;21.60;54.10;;;;;;4882160;28;45705;-81
2023/10/13 10:48:44;;;;;;;3.90;2.77;;;21.60;54.10;;;;;;4858740;29;45334;-83
2023/10/13 10:51:22;;;;;;;4.20;2.75;;;21.60;54.10;;;;;;4839584;28;46090;-81
2023/10/13 10:53:50;;;;;;;4.85;2.90;;;21.50;54.00;;;;;;4862973;28;45407;-80
2023/10/13 10:56:20;;;;;;;4.00;2.80;;;21.60;54.10;;;;;;4886084;28;45872;-81
2023/10/13 10:58:47;;;;;;;4.10;2.90;;;21.60;54.10;;;;;;4874443;28;45945;-81
2023/10/13 11:01:20;;;;;;;3.63;2.40;;;21.60;54.10;;;;;;4849774;28;46410;-80
2023/10/13 11:04:08;;;;;;;3.80;2.70;;;21.60;54.10;;;;;;4846708;29;45234;-82
2023/10/13 11:06:42;;;;;;;4.47;2.97;;;21.60;54.10;;;;;;4874086;28;45282;-81
2023/10/13 11:10:04;;;;;;;4.60;2.80;;;21.60;54.70;;;;;;4875321;28;45090;-80
2023/10/13 11:11:54;;;;;;;4.20;2.78;;;21.60;54.10;;;;;;4876581;28;45515;-81
2023/10/13 11:14:23;;;;;;;4.10;2.72;;;21.60;54.10;;;;;;4876685;28;45859;-81
2023/10/13 11:17:00;;;;;;;3.83;2.40;;;21.60;54.10;;;;;;4850671;28;45421;-81
2023/10/13 11:19:39;;;;;;;3.60;2.40;;;21.60;54.10;;;;;;4858111;28;45797;-81
2023/10/13 11:22:47;;;;;;;3.67;2.77;;;21.60;54.10;;;;;;4854438;28;45857;-81
2023/10/13 11:25:22;;;;;;;2.97;2.53;;;21.60;54.10;;;;;;4877819;28;45540;-82
2023/10/13 11:30:20;;;;;;;4.00;2.85;;;21.60;54.10;;;;;;4884263;28;44883;-81
2023/10/13 11:33:07;;;;;;;3.85;2.67;;;21.60;54.10;;;;;;4854689;28;46315;-81
2023/10/13 11:35:49;;;;;;;5.30;2.58;;;21.70;54.20;;;;;;4860745;28;45795;-81
2023/10/13 11:38:27;;;;;;;3.10;2.50;;;21.70;54.20;;;;;;4873871;28;45663;-81
2023/10/13 11:51:44;;;;;;;2.95;2.65;;;21.70;54.20;;;;;;4887341;28;45171;-81
2023/10/13 11:54:14;;;;;;;4.25;2.83;;;21.70;54.20;;;;;;4892816;28;45420;-81
2023/10/13 11:56:40;;;;;;;3.30;2.55;;;21.70;54.20;;;;;;4887815;28;45343;-81
2023/10/13 11:59:05;;;;;;;4.13;2.67;;;21.70;54.20;;;;;;4859493;28;46354;-81
2023/10/13 12:04:40;;;;;;;5.27;3.00;;;21.80;54.30;;;;;;4891001;28;45506;-82
2023/10/13 12:07:19;;;;;;;3.58;2.40;;;21.70;54.10;;;;;;4856073;28;45787;-83
2023/10/13 12:10:03;;;;;;;3.97;2.78;;;21.70;54.10;;;;;;4873869;28;45806;-83
2023/10/13 12:12:30;;;;;;;3.55;2.67;;;21.70;54.20;;;;;;4872242;28;45689;-89
2023/10/13 12:14:56;;;;;;;3.67;2.58;;;21.70;54.20;;;;;;4875645;28;46220;-83
2023/10/13 12:17:36;;;;;;;3.40;2.60;;;21.70;54.20;;;;;;4864016;28;45340;-83
2023/10/13 12:20:09;;;;;;;5.13;2.72;;;21.80;54.90;;;;;;4867288;28;46205;-83
2023/10/13 12:22:55;;;;;;;3.30;2.58;;;21.80;54.30;;;;;;4857605;28;44840;-82
2023/10/13 12:28:12;;;;;;;3.95;2.63;;;21.80;54.30;;;;;;4884027;28;45043;-83
2023/10/13 12:30:54;;;;;;;3.03;2.35;;;21.80;54.30;;;;;;4869302;28;45277;-84
2023/10/13 12:33:36;;;;;;;4.13;2.50;;;21.80;54.20;;;;;;4905729;28;45890;-84
2023/10/13 12:52:16;;;;;;;3.33;2.43;;;21.80;54.00;;;;;;4871056;28;44923;-84
2023/10/13 12:57:43;;;;;;;3.70;2.20;;;21.80;54.10;;;;;;4881663;28;46108;-83
2023/10/13 13:00:23;;;;;;;5.28;2.63;;;21.80;54.00;;;;;;4890381;28;45274;-82
2023/10/13 13:02:52;;;;;;;3.17;2.27;;;21.80;54.10;;;;;;4885524;28;45755;-83
2023/10/13 13:05:22;;;;;;;4.50;2.53;;;21.80;54.10;;;;;;4867488;28;45682;-83
2023/10/13 13:07:52;;;;;;;3.35;2.30;;;21.80;54.20;;;;;;4863015;28;46568;-84
2023/10/13 13:10:19;;;;;;;3.63;2.60;;;21.80;54.10;;;;;;4852981;29;45685;-84
2023/10/13 13:12:45;;;;;;;4.03;2.40;;;21.80;54.20;;;;;;4857063;28;45074;-84
2023/10/13 13:15:11;;;;;;;3.00;2.37;;;21.80;54.20;;;;;;4852085;28;45812;-83
2023/10/13 13:17:41;;;;;;;3.42;2.45;;;21.80;54.20;;;;;;4851484;28;46460;-83
2023/10/13 13:20:11;;;;;;;2.70;2.22;;;21.80;54.20;;;;;;4866974;28;45479;-82
2023/10/13 13:22:40;;;;;;;4.65;2.35;;;21.90;54.20;;;;;;4856768;28;44734;-82
2023/10/13 13:28:50;;;;;;;3.63;2.38;;;21.90;54.10;;;;;;4866844;28;45892;-83
2023/10/13 13:31:26;;;;;;;5.43;2.60;;;21.90;54.10;;;;;;4841423;28;45995;-83
2023/10/13 13:33:52;;;;;;;3.20;2.30;;;21.90;54.10;;;;;;4851135;28;45316;-82
2023/10/13 13:36:19;;;;;;;3.25;2.50;;;21.90;54.20;;;;;;4852348;29;45255;-82
2023/10/13 13:38:54;;;;;;;2.80;2.17;;;21.90;54.20;;;;;;4885305;28;46256;-81
2023/10/13 13:41:19;;;;;;;4.57;2.58;;;21.90;54.10;;;;;;4868295;28;46194;-81
2023/10/13 13:43:56;;;;;;;2.83;2.13;;;21.90;54.20;;;;;;4839263;28;45945;-81
2023/10/13 13:46:24;;;;;;;4.45;2.55;;;21.90;54.20;;;;;;4878950;28;45714;-82
2023/10/13 13:48:51;;;;;;;3.40;2.30;;;21.90;54.30;;;;;;4862453;28;46257;-80
2023/10/13 13:51:26;;;;;;;2.90;2.10;;;21.90;54.20;;;;;;4881843;28;44749;-81
2023/10/13 13:53:52;;;;;;;3.38;2.10;;;21.90;54.20;;;;;;4846344;28;45243;-81
2023/10/13 13:56:18;;;;;;;3.13;2.30;;;21.90;54.30;;;;;;4862066;28;45313;-81
2023/10/13 13:59:15;;;;;;;3.77;2.30;;;21.90;54.30;;;;;;4870773;28;45421;-82
2023/10/13 14:01:44;;;;;;;3.00;2.20;;;21.90;54.80;;;;;;4862883;28;45895;-81
2023/10/13 14:04:10;;;;;;;3.93;2.33;;;21.90;54.30;;;;;;4857686;28;45730;-81
2023/10/13 14:06:37;;;;;;;5.10;2.75;;;22.00;54.40;;;;;;4850431;28;45724;-82
2023/10/13 14:14:34;;;;;;;3.55;2.40;;;22.00;54.50;;;;;;4887987;28;45908;-82
2023/10/13 14:17:06;;;;;;;3.83;2.50;;;21.90;54.40;;;;;;4878422;28;45140;-81
2023/10/13 14:19:40;;;;;;;4.10;2.45;;;22.00;54.60;;;;;;4869982;28;46448;-82
2023/10/13 14:22:11;;;;;;;3.42;2.28;;;21.90;54.50;;;;;;4868795;28;45820;-81
2023/10/13 14:24:43;;;;;;;4.20;2.15;;;22.00;54.70;;;;;;4888520;28;45511;-81
2023/10/13 14:27:14;;;;;;;3.67;2.45;;;22.00;54.50;;;;;;4869336;28;45231;-81
2023/10/13 14:29:42;;;;;;;4.78;2.20;;;22.00;54.60;;;;;;4882593;28;46560;-81
2023/10/13 14:32:15;;;;;;;3.83;2.25;;;22.00;54.70;;;;;;4833001;28;45339;-81
2023/10/13 14:34:45;;;;;;;3.63;2.20;;;22.00;54.60;;;;;;4859412;28;45359;-82
2023/10/13 14:37:13;;;;;;;2.78;2.28;;;22.00;54.60;;;;;;4852725;28;45764;-81
2023/10/13 14:39:40;;;;;;;4.28;2.47;;;22.00;54.60;;;;;;4841585;28;46279;-81
2023/10/13 14:42:05;;;;;;;3.47;2.30;;;22.00;54.70;;;;;;4851642;28;45789;-81
2023/10/13 14:44:35;;;;;;;3.97;2.20;;;22.00;54.60;;;;;;4872399;28;45889;-81
2023/10/13 14:47:01;;;;;;;4.22;2.35;;;22.00;54.60;;;;;;4847923;28;46617;-82
2023/10/13 14:49:27;;;;;;;2.83;2.03;;;22.00;54.60;;;;;;4867455;28;45565;-82
2023/10/13 14:51:55;;;;;;;2.90;2.10;;;22.00;54.60;;;;;;4862245;28;45306;-81
2023/10/13 14:54:32;;;;;;;3.28;2.28;;;22.00;54.60;;;;;;4870571;28;45427;-82
2023/10/13 14:57:01;;;;;;;2.92;2.10;;;22.00;54.60;;;;;;4868053;28;45803;-82
2023/10/13 14:59:35;;;;;;;2.70;1.90;;;22.00;54.50;;;;;;4871930;28;46198;-82
2023/10/13 15:02:01;;;;;;;3.47;2.38;;;22.00;54.50;;;;;;4832445;28;45339;-82
2023/10/13 15:04:28;;;;;;;3.90;2.30;;;22.00;54.50;;;;;;4870938;28;44932;-81
2023/10/13 15:06:55;;;;;;;3.07;2.00;;;22.00;54.50;;;;;;4882688;28;45858;-82
2023/10/13 15:09:23;;;;;;;3.25;2.20;;;22.00;54.50;;;;;;4872221;28;47143;-81
2023/10/13 15:11:53;;;;;;;3.30;2.00;;;22.10;54.50;;;;;;4876917;28;46253;-82
2023/10/13 15:14:20;;;;;;;3.27;2.30;;;22.10;54.50;;;;;;4857798;28;45440;-81
2023/10/13 15:16:46;;;;;;;4.43;2.08;;;22.00;54.40;;;;;;4847943;28;45602;-81
2023/10/13 15:19:12;;;;;;;2.90;1.90;;;22.10;54.40;;;;;;4888442;28;46715;-82
2023/10/13 15:21:40;;;;;;;2.78;1.90;;;22.10;54.40;;;;;;4865381;28;45894;-81
2023/10/13 15:24:13;;;;;;;3.25;2.00;;;22.10;54.90;;;;;;4871116;28;45602;-81
2023/10/13 15:26:41;;;;;;;4.00;2.30;;;22.10;54.40;;;;;;4850319;28;45567;-81
2023/10/13 15:29:12;;;;;;;2.53;1.83;;;22.10;54.30;;;;;;4889484;28;45831;-82
2023/10/13 15:31:41;;;;;;;3.28;2.28;;;22.10;54.30;;;;;;4853381;28;45102;-82
2023/10/13 15:34:13;;;;;;;2.70;1.90;;;22.10;54.30;;;;;;4870662;28;45504;-82
2023/10/13 15:36:42;;;;;;;2.90;2.08;;;22.10;54.30;;;;;;4880563;28;45616;-81
2023/10/13 15:39:10;;;;;;;2.20;1.90;;;22.10;54.30;;;;;;4872702;28;45423;-81
2023/10/13 15:41:37;;;;;;;3.42;2.03;;;22.10;54.20;;;;;;4881078;28;46116;-81
2023/10/13 15:44:06;;;;;;;2.17;1.88;;;22.10;54.20;;;;;;4849539;28;46539;-81
2023/10/13 15:46:31;;;;;;;2.28;1.70;;;22.10;54.20;;;;;;4849990;28;45423;-82
2023/10/13 15:48:59;;;;;;;2.80;1.80;;;22.10;54.80;;;;;;4857744;28;47330;-81
2023/10/13 15:51:25;;;;;;;3.33;1.98;;;22.10;54.10;;;;;;4855807;28;45546;-82
2023/10/13 15:53:51;;;;;;;2.15;1.90;;;22.10;54.20;;;;;;4856936;28;44890;-81
2023/10/13 15:56:18;;;;;;;3.15;2.00;;;22.10;54.10;;;;;;4874377;28;44874;-82
2023/10/13 15:58:45;;;;;;;3.87;1.87;;;22.10;54.10;;;;;;4858651;28;46203;-81
2023/10/13 16:01:13;;;;;;;2.92;2.00;;;22.10;54.10;;;;;;4848952;28;45721;-85
2023/10/13 16:03:43;;;;;;;2.30;1.90;;;22.10;54.10;;;;;;4861857;28;46112;-82
2023/10/13 16:06:13;;;;;;;2.80;2.03;;;22.10;54.10;;;;;;4844618;28;45151;-82
2023/10/13 16:08:42;;;;;;;3.05;1.90;;;22.10;54.10;;;;;;4876872;28;45954;-81
2023/10/13 16:11:17;;;;;;;4.10;1.90;;;22.10;54.10;;;;;;4843377;29;44878;-81
2023/10/13 16:13:44;;;;;;;3.88;2.10;;;22.10;54.10;;;;;;4877838;28;45690;-81
2023/10/13 16:16:22;;;;;;;2.58;1.90;;;22.10;54.10;;;;;;4848222;28;45384;-82
2023/10/13 16:18:48;;;;;;;3.80;1.95;;;22.10;54.10;;;;;;4878710;28;47471;-82
2023/10/13 16:21:17;;;;;;;2.90;1.90;;;22.10;54.00;;;;;;4864012;28;45874;-81
2023/10/13 16:23:47;;;;;;;3.08;2.05;;;22.10;54.10;;;;;;4866674;28;45591;-81
2023/10/13 16:26:40;;;;;;;2.27;1.77;;;22.10;54.10;;;;;;4852214;28;45935;-81
2023/10/13 16:29:07;;;;;;;2.67;1.98;;;22.10;54.10;;;;;;4872845;28;46349;-82
2023/10/13 16:31:33;;;;;;;3.20;1.75;;;22.10;54.10;;;;;;4859767;29;46253;-82
2023/10/13 16:33:59;;;;;;;1.80;1.55;;;22.10;54.10;;;;;;4852184;28;45139;-82
2023/10/13 16:36:28;;;;;;;3.13;1.77;;;22.10;54.10;;;;;;4881011;28;45750;-82
2023/10/13 16:38:57;;;;;;;2.42;1.80;;;22.10;54.10;;;;;;4865324;28;46043;-80
2023/10/13 16:41:46;;;;;;;2.92;1.95;;;22.10;54.10;;;;;;4864313;28;45360;-82
2023/10/13 16:44:12;;;;;;;2.17;1.67;;;22.10;54.10;;;;;;4866368;28;44841;-81
2023/10/13 16:46:38;;;;;;;2.22;1.70;;;22.10;54.10;;;;;;4861974;28;45442;-81
2023/10/13 16:49:04;;;;;;;2.80;1.98;;;22.10;54.10;;;;;;4866955;28;46186;-82
2023/10/13 16:51:29;;;;;;;2.47;1.85;;;22.10;54.10;;;;;;4863594;28;46020;-81
2023/10/13 16:53:58;;;;;;;2.67;2.00;;;22.10;54.00;;;;;;4837337;28;45336;-82
2023/10/13 16:56:24;;;;;;;3.83;2.00;;;22.10;54.10;;;;;;4882527;28;45817;-82
2023/10/13 16:58:54;;;;;;;2.85;1.90;;;22.10;54.10;;;;;;4870436;28;47036;-82
2023/10/13 17:01:21;;;;;;;3.77;1.97;;;22.10;54.10;;;;;;4874136;28;47109;-82
2023/10/13 17:03:49;;;;;;;3.23;1.80;;;22.10;54.10;;;;;;4882202;28;45942;-82
2023/10/13 17:06:15;;;;;;;2.97;1.97;;;22.10;54.00;;;;;;4847892;28;45827;-82
2023/10/13 17:08:42;;;;;;;2.70;1.57;;;22.10;54.00;;;;;;4866465;28;46342;-82
2023/10/13 17:11:17;;;;;;;2.30;1.70;;;22.20;54.10;;;;;;4860980;28;45586;-82
2023/10/13 17:13:46;;;;;;;2.15;1.88;;;22.10;54.10;;;;;;4854966;28;45369;-82
2023/10/13 17:16:22;;;;;;;2.38;1.73;;;22.10;54.10;;;;;;4845581;28;45363;-82
2023/10/13 17:18:51;;;;;;;2.30;1.95;;;22.10;54.10;;;;;;4866375;28;46517;-81
2023/10/13 17:21:40;;;;;;;2.60;1.80;;;22.10;54.10;;;;;;4864917;28;45618;-82
2023/10/13 17:24:06;;;;;;;3.00;1.93;;;22.20;54.10;;;;;;4866321;28;45337;-82
2023/10/13 17:26:32;;;;;;;2.30;1.75;;;22.10;54.00;;;;;;4865195;28;45626;-83
2023/10/13 17:28:58;;;;;;;3.22;1.88;;;22.20;54.10;;;;;;4848339;28;46931;-84
2023/10/13 17:31:27;;;;;;;2.23;1.70;;;22.10;54.00;;;;;;4861020;28;45682;-83
2023/10/13 17:33:58;;;;;;;2.83;2.00;;;22.10;54.10;;;;;;4864744;28;45376;-83
2023/10/13 17:36:26;;;;;;;2.78;1.70;;;22.10;54.00;;;;;;4863327;28;45296;-82
2023/10/13 17:38:52;;;;;;;2.92;1.83;;;22.10;54.00;;;;;;4867545;28;45609;-82
2023/10/13 17:41:18;;;;;;;2.67;1.80;;;22.10;54.10;;;;;;4879854;28;45639;-82
2023/10/13 17:43:45;;;;;;;4.72;2.00;;;22.10;54.10;;;;;;4850474;28;45372;-82
2023/10/13 17:46:12;;;;;;;2.17;1.83;;;22.10;54.00;;;;;;4859983;28;45579;-81
2023/10/13 17:48:38;;;;;;;3.25;1.88;;;22.10;54.00;;;;;;4865282;28;46195;-80
2023/10/13 17:51:10;;;;;;;2.63;1.73;;;22.10;54.00;;;;;;4842702;28;45670;-81
2023/10/13 17:53:37;;;;;;;4.07;1.83;;;22.10;54.10;;;;;;4851218;28;45836;-81
2023/10/13 17:56:41;;;;;;;3.73;1.90;;;22.10;54.00;;;;;;4862612;28;45416;-81
2023/10/13 17:59:06;;;;;;;3.58;2.00;;;22.10;54.00;;;;;;4867371;28;46400;-81
2023/10/13 18:01:33;;;;;;;2.90;1.60;;;22.20;54.10;;;;;;4859887;28;45151;-80
2023/10/13 18:04:09;;;;;;;2.60;1.95;;;22.10;54.00;;;;;;4883809;28;45115;-83
2023/10/13 18:06:36;;;;;;;2.90;1.90;;;22.20;54.10;;;;;;4849353;28;45490;-81
2023/10/13 18:09:04;;;;;;;4.67;2.30;;;22.10;54.10;;;;;;4866095;28;46315;-81
2023/10/13 18:11:32;;;;;;;3.45;1.85;;;22.10;54.10;;;;;;4858229;28;45405;-81
2023/10/13 18:14:06;;;;;;;3.10;1.90;;;22.10;54.00;;;;;;4868401;28;46272;-81
2023/10/13 18:16:34;;;;;;;2.50;1.77;;;22.20;54.10;;;;;;4872399;28;45705;-81
2023/10/13 18:19:07;;;;;;;4.15;1.77;;;22.10;54.10;;;;;;4899501;28;47086;-81
2023/10/13 18:21:35;;;;;;;2.92;1.88;;;22.10;54.00;;;;;;4849652;28;45819;-83
2023/10/13 18:24:01;;;;;;;3.28;2.03;;;22.20;54.10;;;;;;4833637;28;46131;-80
2023/10/13 18:26:27;;;;;;;2.92;1.75;;;22.10;54.00;;;;;;4845984;28;45595;-82
2023/10/13 18:28:54;;;;;;;3.85;2.10;;;22.10;54.00;;;;;;4853875;28;45655;-81
2023/10/13 18:31:20;;;;;;;2.53;2.00;;;22.10;54.00;;;;;;4844726;28;45211;-82
2023/10/13 18:33:46;;;;;;;2.30;1.85;;;22.20;54.10;;;;;;4845874;28;45385;-81
2023/10/13 18:36:15;;;;;;;3.57;2.03;;;22.10;54.10;;;;;;4844605;28;45910;-81
2023/10/13 18:38:48;;;;;;;3.20;2.00;;;22.20;54.10;;;;;;4865991;28;46284;-81
2023/10/13 18:41:19;;;;;;;2.20;1.80;;;22.20;54.10;;;;;;4880379;28;45435;-81
2023/10/13 18:43:45;;;;;;;3.10;1.83;;;22.10;54.00;;;;;;4867439;28;45394;-81
2023/10/13 18:46:11;;;;;;;2.35;1.80;;;22.10;54.00;;;;;;4860211;28;45480;-81
2023/10/13 18:48:43;;;;;;;3.22;2.00;;;22.10;54.00;;;;;;4866754;28;46371;-81
2023/10/13 18:51:55;;;;;;;;;;;;;;;;;;;;;
2023/10/13 18:54:29;;;;;;;2.45;1.85;;;22.20;54.10;;;;;;4862999;28;45236;-81
2023/10/13 18:56:55;;;;;;;3.57;1.83;;;22.20;54.10;;;;;;4871452;28;44937;-81
2023/10/13 18:59:21;;;;;;;3.33;1.93;;;22.20;54.10;;;;;;4857631;28;46747;-82
2023/10/13 19:01:46;;;;;;;3.30;1.75;;;22.20;54.10;;;;;;4865896;28;45359;-81
2023/10/13 19:04:12;;;;;;;2.40;1.60;;;22.20;54.10;;;;;;4853351;28;45059;-81
2023/10/13 19:06:38;;;;;;;3.55;1.92;;;22.20;54.10;;;;;;4832035;28;45023;-82
2023/10/13 19:09:07;;;;;;;3.50;2.30;;;22.20;54.10;;;;;;4866580;28;47111;-81
2023/10/13 19:11:35;;;;;;;2.40;1.95;;;22.10;54.00;;;;;;4835284;28;45854;-81
2023/10/13 19:14:00;;;;;;;3.43;2.00;;;22.20;54.10;;;;;;4850573;28;46454;-83
2023/10/13 19:16:26;;;;;;;2.90;2.03;;;22.20;54.10;;;;;;4850413;28;45513;-84
2023/10/13 19:18:54;;;;;;;2.08;1.80;;;22.20;54.10;;;;;;4869693;28;45333;-82
2023/10/13 19:21:22;;;;;;;2.13;1.73;;;22.20;54.10;;;;;;4897157;28;45197;-81
2023/10/13 19:23:51;;;;;;;3.03;2.10;;;22.20;54.10;;;;;;4884966;28;44798;-82
2023/10/13 19:26:27;;;;;;;2.37;1.73;;;22.20;54.10;;;;;;4856629;28;45396;-82
2023/10/13 19:28:53;;;;;;;2.72;1.83;;;22.20;54.10;;;;;;4886778;28;45776;-81
2023/10/13 19:31:20;;;;;;;3.40;2.08;;;22.20;54.20;;;;;;4842218;28;45486;-81
2023/10/13 19:33:46;;;;;;;2.60;1.83;;;22.20;54.10;;;;;;4867299;28;45136;-81
2023/10/13 19:36:13;;;;;;;2.80;2.00;;;22.20;54.10;;;;;;4861327;28;46479;-81
2023/10/13 19:38:42;;;;;;;2.92;1.80;;;22.20;54.10;;;;;;4869018;28;46406;-81